sensor_id;sensor_type;location;lat;lon;timestamp;pressure;altitude;pressure_sealevel;temperature;humidity
61408;BME280;47274;43.054;25.146;2023-03-22T00:01:55;95217.41;;;8.84;100.00
61408;BME280;47274;43.054;25.146;2023-03-22T00:04:21;95219.16;;;8.84;100.00
61408;BME280;47274;43.054;25.146;2023-03-22T00:06:46;95226.56;;;8.87;100.00
61408;BME280;47274;43.054;25.146;2023-03-22T00:09:12;95231.28;;;8.82;100.00
61408;BME280;47274;43.054;25.146;2023-03-22T00:11:38;95208.47;;;8.70;100.00
61408;BME280;47274;43.054;25.146;2023-03-22T00:14:04;95224.00;;;8.87;100.00
61408;BME280;47274;43.054;25.146;2023-03-22T00:16:30;95221.28;;;8.88;100.00
61408;BME280;47274;43.054;25.146;2023-03-22T00:18:56;95233.69;;;8.93;100.00
61408;BME280;47274;43.054;25.146;2023-03-22T00:21:22;95218.50;;;8.82;100.00
61408;BME280;47274;43.054;25.146;2023-03-22T00:23:47;95224.44;;;8.82;100.00
61408;BME280;47274;43.054;25.146;2023-03-22T00:26:14;95227.81;;;8.83;100.00
61408;BME280;47274;43.054;25.146;2023-03-22T00:28:41;95226.19;;;8.82;100.00
61408;BME280;47274;43.054;25.146;2023-03-22T00:31:08;95223.38;;;8.75;100.00
61408;BME280;47274;43.054;25.146;2023-03-22T00:33:35;95223.78;;;8.80;100.00
61408;BME280;47274;43.054;25.146;2023-03-22T00:36:04;95239.41;;;8.77;100.00
61408;BME280;47274;43.054;25.146;2023-03-22T00:38:30;95229.97;;;8.77;100.00
61408;BME280;47274;43.054;25.146;2023-03-22T00:41:04;95226.19;;;8.82;100.00
61408;BME280;47274;43.054;25.146;2023-03-22T00:43:29;95209.03;;;8.64;100.00
61408;BME280;47274;43.054;25.146;2023-03-22T00:45:55;95213.88;;;8.67;100.00
61408;BME280;47274;43.054;25.146;2023-03-22T00:48:21;95215.19;;;8.71;100.00
61408;BME280;47274;43.054;25.146;2023-03-22T00:50:48;95218.69;;;8.70;100.00
61408;BME280;47274;43.054;25.146;2023-03-22T00:53:13;95208.66;;;8.59;100.00
61408;BME280;47274;43.054;25.146;2023-03-22T00:55:39;95214.56;;;8.60;100.00
61408;BME280;47274;43.054;25.146;2023-03-22T00:58:05;95205.34;;;8.49;100.00
61408;BME280;47274;43.054;25.146;2023-03-22T01:00:31;95206.50;;;8.54;100.00
61408;BME280;47274;43.054;25.146;2023-03-22T01:02:58;95217.13;;;8.60;100.00
61408;BME280;47274;43.054;25.146;2023-03-22T01:05:32;95204.25;;;8.51;100.00
61408;BME280;47274;43.054;25.146;2023-03-22T01:08:05;95205.47;;;8.47;100.00
61408;BME280;47274;43.054;25.146;2023-03-22T01:10:38;95210.56;;;8.47;100.00
61408;BME280;47274;43.054;25.146;2023-03-22T01:13:04;95199.69;;;8.45;100.00
61408;BME280;47274;43.054;25.146;2023-03-22T01:15:30;95212.97;;;8.59;100.00
61408;BME280;47274;43.054;25.146;2023-03-22T01:17:57;95210.13;;;8.62;100.00
61408;BME280;47274;43.054;25.146;2023-03-22T01:20:23;95208.78;;;8.58;100.00
61408;BME280;47274;43.054;25.146;2023-03-22T01:22:49;95209.63;;;8.58;100.00
61408;BME280;47274;43.054;25.146;2023-03-22T01:25:14;95192.41;;;8.50;100.00
61408;BME280;47274;43.054;25.146;2023-03-22T01:27:40;95191.06;;;8.46;100.00
61408;BME280;47274;43.054;25.146;2023-03-22T01:30:06;95196.44;;;8.53;100.00
61408;BME280;47274;43.054;25.146;2023-03-22T01:32:32;95200.31;;;8.57;100.00
61408;BME280;47274;43.054;25.146;2023-03-22T01:35:00;95185.28;;;8.44;100.00
61408;BME280;47274;43.054;25.146;2023-03-22T01:37:28;95185.69;;;8.49;100.00
61408;BME280;47274;43.054;25.146;2023-03-22T01:39:55;95184.38;;;8.45;100.00
61408;BME280;47274;43.054;25.146;2023-03-22T01:42:22;95201.81;;;8.50;100.00
61408;BME280;47274;43.054;25.146;2023-03-22T01:47:52;95185.16;;;8.46;100.00
61408;BME280;47274;43.054;25.146;2023-03-22T01:50:20;95188.69;;;8.45;100.00
61408;BME280;47274;43.054;25.146;2023-03-22T01:52:49;95180.72;;;8.48;100.00
61408;BME280;47274;43.054;25.146;2023-03-22T01:55:21;95197.78;;;8.47;100.00
61408;BME280;47274;43.054;25.146;2023-03-22T01:58:08;95182.38;;;8.39;100.00
61408;BME280;47274;43.054;25.146;2023-03-22T02:00:46;95205.06;;;8.52;100.00
61408;BME280;47274;43.054;25.146;2023-03-22T02:06:11;95189.06;;;8.40;100.00
61408;BME280;47274;43.054;25.146;2023-03-22T02:08:37;95203.59;;;8.49;100.00
61408;BME280;47274;43.054;25.146;2023-03-22T02:11:15;95201.59;;;8.43;100.00
61408;BME280;47274;43.054;25.146;2023-03-22T02:25:04;95191.00;;;8.38;100.00
61408;BME280;47274;43.054;25.146;2023-03-22T02:44:24;95193.78;;;8.35;100.00
61408;BME280;47274;43.054;25.146;2023-03-22T02:47:07;95189.59;;;8.34;100.00
61408;BME280;47274;43.054;25.146;2023-03-22T02:49:45;95191.34;;;8.34;100.00
61408;BME280;47274;43.054;25.146;2023-03-22T02:52:40;95200.78;;;8.33;100.00
61408;BME280;47274;43.054;25.146;2023-03-22T02:57:54;95200.25;;;8.29;100.00
61408;BME280;47274;43.054;25.146;2023-03-22T03:00:24;95153.41;;;8.01;100.00
61408;BME280;47274;43.054;25.146;2023-03-22T03:02:54;95191.28;;;8.16;100.00
61408;BME280;47274;43.054;25.146;2023-03-22T03:05:22;95188.88;;;8.14;100.00
61408;BME280;47274;43.054;25.146;2023-03-22T03:07:55;95201.09;;;8.20;100.00
61408;BME280;47274;43.054;25.146;2023-03-22T03:10:24;95201.75;;;8.22;100.00
61408;BME280;47274;43.054;25.146;2023-03-22T03:12:51;95207.81;;;8.31;100.00
61408;BME280;47274;43.054;25.146;2023-03-22T03:15:20;95215.75;;;8.28;100.00
61408;BME280;47274;43.054;25.146;2023-03-22T03:23:54;95206.41;;;8.37;100.00
61408;BME280;47274;43.054;25.146;2023-03-22T03:29:17;95206.59;;;8.25;100.00
61408;BME280;47274;43.054;25.146;2023-03-22T03:32:00;95200.16;;;8.21;100.00
61408;BME280;47274;43.054;25.146;2023-03-22T03:34:42;95216.41;;;8.30;100.00
61408;BME280;47274;43.054;25.146;2023-03-22T03:37:44;95208.09;;;8.28;100.00
61408;BME280;47274;43.054;25.146;2023-03-22T03:40:14;95204.06;;;8.25;100.00
61408;BME280;47274;43.054;25.146;2023-03-22T03:42:46;95197.34;;;8.24;100.00
61408;BME280;47274;43.054;25.146;2023-03-22T03:45:14;95206.06;;;8.31;100.00
61408;BME280;47274;43.054;25.146;2023-03-22T03:47:42;95206.19;;;8.30;100.00
61408;BME280;47274;43.054;25.146;2023-03-22T03:50:10;95207.41;;;8.26;100.00
61408;BME280;47274;43.054;25.146;2023-03-22T03:52:37;95198.69;;;8.19;100.00
61408;BME280;47274;43.054;25.146;2023-03-22T03:55:03;95199.22;;;8.22;100.00
61408;BME280;47274;43.054;25.146;2023-03-22T03:57:31;95215.88;;;8.26;100.00
61408;BME280;47274;43.054;25.146;2023-03-22T03:59:57;95211.88;;;8.24;100.00
61408;BME280;47274;43.054;25.146;2023-03-22T04:02:40;95219.66;;;8.22;100.00
61408;BME280;47274;43.054;25.146;2023-03-22T04:05:12;95201.16;;;8.11;100.00
61408;BME280;47274;43.054;25.146;2023-03-22T04:07:38;95214.69;;;8.21;100.00
61408;BME280;47274;43.054;25.146;2023-03-22T04:10:05;95237.13;;;8.27;100.00
61408;BME280;47274;43.054;25.146;2023-03-22T04:12:32;95243.19;;;8.26;100.00
61408;BME280;47274;43.054;25.146;2023-03-22T04:15:10;95228.56;;;8.18;100.00
61408;BME280;47274;43.054;25.146;2023-03-22T04:17:37;95236.78;;;8.12;100.00
61408;BME280;47274;43.054;25.146;2023-03-22T04:20:06;95251.59;;;7.89;100.00
61408;BME280;47274;43.054;25.146;2023-03-22T04:22:36;95263.44;;;7.80;100.00
61408;BME280;47274;43.054;25.146;2023-03-22T04:25:06;95239.41;;;7.64;100.00
61408;BME280;47274;43.054;25.146;2023-03-22T04:27:39;95272.72;;;7.43;100.00
61408;BME280;47274;43.054;25.146;2023-03-22T04:30:11;95256.53;;;7.03;100.00
61408;BME280;47274;43.054;25.146;2023-03-22T04:32:56;95259.34;;;7.10;100.00
61408;BME280;47274;43.054;25.146;2023-03-22T04:35:33;95260.78;;;6.93;100.00
61408;BME280;47274;43.054;25.146;2023-03-22T04:38:00;95249.09;;;6.81;100.00
61408;BME280;47274;43.054;25.146;2023-03-22T04:40:27;95247.34;;;6.81;100.00
61408;BME280;47274;43.054;25.146;2023-03-22T04:43:03;95261.34;;;6.97;100.00
61408;BME280;47274;43.054;25.146;2023-03-22T04:45:55;95265.09;;;6.93;100.00
61408;BME280;47274;43.054;25.146;2023-03-22T04:48:27;95254.19;;;6.81;100.00
61408;BME280;47274;43.054;25.146;2023-03-22T04:50:56;95276.38;;;7.00;100.00
61408;BME280;47274;43.054;25.146;2023-03-22T04:53:25;95267.91;;;6.89;100.00
61408;BME280;47274;43.054;25.146;2023-03-22T04:55:55;95268.88;;;6.98;100.00
61408;BME280;47274;43.054;25.146;2023-03-22T04:58:24;95249.53;;;6.96;100.00
61408;BME280;47274;43.054;25.146;2023-03-22T05:00:50;95260.31;;;7.09;100.00
61408;BME280;47274;43.054;25.146;2023-03-22T05:03:18;95274.16;;;7.26;100.00
61408;BME280;47274;43.054;25.146;2023-03-22T05:05:53;95261.25;;;7.27;100.00
61408;BME280;47274;43.054;25.146;2023-03-22T05:08:22;95277.41;;;7.38;100.00
61408;BME280;47274;43.054;25.146;2023-03-22T05:10:53;95269.47;;;7.41;100.00
61408;BME280;47274;43.054;25.146;2023-03-22T05:13:20;95280.13;;;7.46;100.00
61408;BME280;47274;43.054;25.146;2023-03-22T05:15:47;95279.44;;;7.44;100.00
61408;BME280;47274;43.054;25.146;2023-03-22T05:18:18;95265.84;;;7.33;100.00
61408;BME280;47274;43.054;25.146;2023-03-22T05:20:49;95284.69;;;7.42;100.00
61408;BME280;47274;43.054;25.146;2023-03-22T05:23:19;95286.41;;;7.42;100.00
61408;BME280;47274;43.054;25.146;2023-03-22T05:25:51;95279.41;;;7.24;100.00
61408;BME280;47274;43.054;25.146;2023-03-22T05:28:19;95283.19;;;7.30;100.00
61408;BME280;47274;43.054;25.146;2023-03-22T05:31:02;95303.44;;;7.31;100.00
61408;BME280;47274;43.054;25.146;2023-03-22T05:33:37;95284.50;;;7.24;100.00
61408;BME280;47274;43.054;25.146;2023-03-22T05:36:06;95288.81;;;7.33;100.00
61408;BME280;47274;43.054;25.146;2023-03-22T05:38:39;95302.66;;;7.41;100.00
61408;BME280;47274;43.054;25.146;2023-03-22T05:41:06;95307.38;;;7.45;100.00
61408;BME280;47274;43.054;25.146;2023-03-22T05:43:33;95294.47;;;7.37;100.00
61408;BME280;47274;43.054;25.146;2023-03-22T05:45:59;95305.09;;;7.42;100.00
61408;BME280;47274;43.054;25.146;2023-03-22T05:48:38;95318.81;;;7.51;100.00
61408;BME280;47274;43.054;25.146;2023-03-22T05:51:12;95314.38;;;7.53;100.00
61408;BME280;47274;43.054;25.146;2023-03-22T05:53:46;95320.94;;;7.55;100.00
61408;BME280;47274;43.054;25.146;2023-03-22T05:56:16;95321.09;;;7.54;100.00
61408;BME280;47274;43.054;25.146;2023-03-22T05:58:46;95320.41;;;7.52;100.00
61408;BME280;47274;43.054;25.146;2023-03-22T06:01:15;95312.47;;;7.45;100.00
61408;BME280;47274;43.054;25.146;2023-03-22T06:03:44;95318.94;;;7.40;100.00
61408;BME280;47274;43.054;25.146;2023-03-22T06:06:24;95320.53;;;7.41;100.00
61408;BME280;47274;43.054;25.146;2023-03-22T06:09:08;95340.44;;;7.47;100.00
61408;BME280;47274;43.054;25.146;2023-03-22T06:11:33;95331.69;;;7.40;100.00
61408;BME280;47274;43.054;25.146;2023-03-22T06:14:03;95333.19;;;7.52;100.00
61408;BME280;47274;43.054;25.146;2023-03-22T06:16:43;95326.63;;;7.49;100.00
61408;BME280;47274;43.054;25.146;2023-03-22T06:19:09;95349.22;;;7.64;100.00
61408;BME280;47274;43.054;25.146;2023-03-22T06:21:34;95342.88;;;7.68;100.00
61408;BME280;47274;43.054;25.146;2023-03-22T06:24:00;95344.50;;;7.69;100.00
61408;BME280;47274;43.054;25.146;2023-03-22T06:26:26;95331.88;;;7.67;100.00
61408;BME280;47274;43.054;25.146;2023-03-22T06:28:52;95345.72;;;7.74;100.00
61408;BME280;47274;43.054;25.146;2023-03-22T06:31:18;95347.06;;;7.78;100.00
61408;BME280;47274;43.054;25.146;2023-03-22T06:33:57;95349.34;;;7.81;100.00
61408;BME280;47274;43.054;25.146;2023-03-22T06:36:35;95344.41;;;7.80;100.00
61408;BME280;47274;43.054;25.146;2023-03-22T06:39:09;95361.72;;;7.86;100.00
61408;BME280;47274;43.054;25.146;2023-03-22T06:41:35;95361.88;;;7.84;100.00
61408;BME280;47274;43.054;25.146;2023-03-22T06:44:01;95360.25;;;7.83;100.00
61408;BME280;47274;43.054;25.146;2023-03-22T06:46:44;95363.47;;;7.86;100.00
61408;BME280;47274;43.054;25.146;2023-03-22T06:49:24;95364.41;;;7.84;100.00
61408;BME280;47274;43.054;25.146;2023-03-22T06:51:52;95366.97;;;7.84;100.00
61408;BME280;47274;43.054;25.146;2023-03-22T06:54:19;95356.75;;;7.84;100.00
61408;BME280;47274;43.054;25.146;2023-03-22T06:56:45;95379.34;;;7.99;100.00
61408;BME280;47274;43.054;25.146;2023-03-22T06:59:11;95373.03;;;7.93;100.00
61408;BME280;47274;43.054;25.146;2023-03-22T07:01:36;95378.28;;;8.01;100.00
61408;BME280;47274;43.054;25.146;2023-03-22T07:04:02;95382.72;;;8.09;100.00
61408;BME280;47274;43.054;25.146;2023-03-22T07:06:28;95378.28;;;8.01;100.00
61408;BME280;47274;43.054;25.146;2023-03-22T07:08:55;95395.38;;;8.11;100.00
61408;BME280;47274;43.054;25.146;2023-03-22T07:11:26;95391.72;;;8.13;100.00
61408;BME280;47274;43.054;25.146;2023-03-22T07:13:58;95378.97;;;8.03;100.00
61408;BME280;47274;43.054;25.146;2023-03-22T07:16:27;95394.53;;;8.10;100.00
61408;BME280;47274;43.054;25.146;2023-03-22T07:18:59;95400.47;;;7.91;100.00
61408;BME280;47274;43.054;25.146;2023-03-22T07:21:25;95398.19;;;7.98;100.00
61408;BME280;47274;43.054;25.146;2023-03-22T07:23:55;95389.56;;;7.99;100.00
61408;BME280;47274;43.054;25.146;2023-03-22T07:26:26;95375.06;;;8.09;100.00
61408;BME280;47274;43.054;25.146;2023-03-22T07:28:54;95405.59;;;8.30;100.00
61408;BME280;47274;43.054;25.146;2023-03-22T07:31:25;95386.63;;;8.32;100.00
61408;BME280;47274;43.054;25.146;2023-03-22T07:33:57;95397.00;;;8.50;100.00
61408;BME280;47274;43.054;25.146;2023-03-22T07:36:26;95402.91;;;8.61;100.00
61408;BME280;47274;43.054;25.146;2023-03-22T07:38:53;95404.22;;;8.65;100.00
61408;BME280;47274;43.054;25.146;2023-03-22T07:41:29;95401.94;;;8.71;100.00
61408;BME280;47274;43.054;25.146;2023-03-22T07:44:27;95403.69;;;8.71;100.00
61408;BME280;47274;43.054;25.146;2023-03-22T07:47:25;95403.28;;;8.75;100.00
61408;BME280;47274;43.054;25.146;2023-03-22T07:50:21;95413.91;;;8.81;100.00
61408;BME280;47274;43.054;25.146;2023-03-22T07:52:53;95412.84;;;8.83;100.00
61408;BME280;47274;43.054;25.146;2023-03-22T07:55:18;95411.06;;;8.84;100.00
61408;BME280;47274;43.054;25.146;2023-03-22T07:57:44;95417.13;;;8.92;100.00
61408;BME280;47274;43.054;25.146;2023-03-22T08:00:11;95415.41;;;9.20;100.00
61408;BME280;47274;43.054;25.146;2023-03-22T08:03:11;95389.06;;;9.38;100.00
61408;BME280;47274;43.054;25.146;2023-03-22T08:06:04;95408.63;;;9.84;100.00
61408;BME280;47274;43.054;25.146;2023-03-22T08:08:34;95407.19;;;10.17;100.00
61408;BME280;47274;43.054;25.146;2023-03-22T08:11:02;95401.78;;;10.38;100.00
61408;BME280;47274;43.054;25.146;2023-03-22T08:13:28;95404.97;;;10.76;100.00
61408;BME280;47274;43.054;25.146;2023-03-22T08:15:54;95406.78;;;10.84;98.57
61408;BME280;47274;43.054;25.146;2023-03-22T08:18:20;95399.28;;;10.90;100.00
61408;BME280;47274;43.054;25.146;2023-03-22T08:20:52;95410.50;;;11.15;100.00
61408;BME280;47274;43.054;25.146;2023-03-22T08:23:19;95394.91;;;11.09;97.31
61408;BME280;47274;43.054;25.146;2023-03-22T08:25:44;95385.16;;;11.21;98.98
61408;BME280;47274;43.054;25.146;2023-03-22T08:28:11;95411.13;;;11.44;96.82
61408;BME280;47274;43.054;25.146;2023-03-22T08:30:39;95398.94;;;11.46;97.00
61408;BME280;47274;43.054;25.146;2023-03-22T08:33:04;95406.66;;;11.46;95.89
61408;BME280;47274;43.054;25.146;2023-03-22T08:35:31;95398.44;;;11.42;97.75
61408;BME280;47274;43.054;25.146;2023-03-22T08:37:57;95409.31;;;11.36;97.78
61408;BME280;47274;43.054;25.146;2023-03-22T08:40:30;95405.28;;;11.33;97.48
61408;BME280;47274;43.054;25.146;2023-03-22T08:42:59;95405.59;;;11.30;97.05
61408;BME280;47274;43.054;25.146;2023-03-22T08:45:27;95396.59;;;11.26;95.93
61408;BME280;47274;43.054;25.146;2023-03-22T08:48:00;95403.72;;;11.06;96.00
61408;BME280;47274;43.054;25.146;2023-03-22T08:50:28;95409.00;;;11.05;97.33
61408;BME280;47274;43.054;25.146;2023-03-22T08:53:05;95410.00;;;10.86;96.57
61408;BME280;47274;43.054;25.146;2023-03-22T08:55:33;95403.31;;;10.67;96.27
61408;BME280;47274;43.054;25.146;2023-03-22T08:58:07;95413.38;;;10.60;97.09
61408;BME280;47274;43.054;25.146;2023-03-22T09:01:04;95394.09;;;10.38;98.25
61408;BME280;47274;43.054;25.146;2023-03-22T09:03:53;95401.66;;;10.40;98.57
61408;BME280;47274;43.054;25.146;2023-03-22T09:06:19;95399.22;;;10.38;99.53
61408;BME280;47274;43.054;25.146;2023-03-22T09:08:45;95407.38;;;10.34;98.13
61408;BME280;47274;43.054;25.146;2023-03-22T09:11:14;95397.56;;;10.29;98.72
61408;BME280;47274;43.054;25.146;2023-03-22T09:13:41;95402.09;;;10.35;98.29
61408;BME280;47274;43.054;25.146;2023-03-22T09:16:07;95404.28;;;10.30;97.74
61408;BME280;47274;43.054;25.146;2023-03-22T09:18:34;95404.94;;;10.32;98.40
61408;BME280;47274;43.054;25.146;2023-03-22T09:21:08;95418.88;;;10.30;98.36
61408;BME280;47274;43.054;25.146;2023-03-22T09:23:41;95385.50;;;10.12;99.68
61408;BME280;47274;43.054;25.146;2023-03-22T09:26:09;95400.97;;;10.20;100.00
61408;BME280;47274;43.054;25.146;2023-03-22T09:28:36;95417.97;;;10.21;100.00
61408;BME280;47274;43.054;25.146;2023-03-22T09:31:07;95413.63;;;10.21;100.00
61408;BME280;47274;43.054;25.146;2023-03-22T09:33:35;95419.22;;;10.17;100.00
61408;BME280;47274;43.054;25.146;2023-03-22T09:36:01;95394.59;;;10.06;100.00
61408;BME280;47274;43.054;25.146;2023-03-22T09:38:27;95396.78;;;10.01;100.00
61408;BME280;47274;43.054;25.146;2023-03-22T09:41:01;95415.09;;;10.24;100.00
61408;BME280;47274;43.054;25.146;2023-03-22T09:43:36;95414.16;;;10.25;100.00
61408;BME280;47274;43.054;25.146;2023-03-22T09:46:09;95400.75;;;10.13;100.00
61408;BME280;47274;43.054;25.146;2023-03-22T09:48:40;95410.25;;;10.21;100.00
61408;BME280;47274;43.054;25.146;2023-03-22T09:51:22;95407.16;;;10.27;100.00
61408;BME280;47274;43.054;25.146;2023-03-22T09:53:53;95384.91;;;10.18;100.00
61408;BME280;47274;43.054;25.146;2023-03-22T09:56:20;95415.28;;;10.40;100.00
61408;BME280;47274;43.054;25.146;2023-03-22T09:59:21;95416.22;;;10.57;100.00
61408;BME280;47274;43.054;25.146;2023-03-22T10:10:18;95418.16;;;11.07;96.89
61408;BME280;47274;43.054;25.146;2023-03-22T10:12:59;95421.28;;;11.19;96.78
61408;BME280;47274;43.054;25.146;2023-03-22T10:15:37;95400.47;;;11.30;95.76
61408;BME280;47274;43.054;25.146;2023-03-22T10:18:24;95423.84;;;11.88;94.69
61408;BME280;47274;43.054;25.146;2023-03-22T10:21:00;95418.59;;;12.14;92.99
61408;BME280;47274;43.054;25.146;2023-03-22T10:23:43;95421.34;;;12.37;92.66
61408;BME280;47274;43.054;25.146;2023-03-22T10:26:29;95429.88;;;12.53;90.52
61408;BME280;47274;43.054;25.146;2023-03-22T10:31:45;95423.09;;;12.12;84.72
61408;BME280;47274;43.054;25.146;2023-03-22T10:34:21;95427.78;;;12.24;86.14
61408;BME280;47274;43.054;25.146;2023-03-22T10:36:50;95422.13;;;12.04;83.02
61408;BME280;47274;43.054;25.146;2023-03-22T10:39:25;95425.97;;;12.08;82.36
61408;BME280;47274;43.054;25.146;2023-03-22T10:41:54;95411.97;;;12.03;81.98
61408;BME280;47274;43.054;25.146;2023-03-22T10:44:22;95413.78;;;12.19;83.28
61408;BME280;47274;43.054;25.146;2023-03-22T10:46:50;95422.63;;;12.24;84.05
61408;BME280;47274;43.054;25.146;2023-03-22T10:49:25;95412.03;;;12.36;84.78
61408;BME280;47274;43.054;25.146;2023-03-22T10:51:57;95418.97;;;12.51;85.27
61408;BME280;47274;43.054;25.146;2023-03-22T10:54:26;95418.44;;;12.15;81.64
61408;BME280;47274;43.054;25.146;2023-03-22T10:56:53;95406.06;;;12.11;84.21
61408;BME280;47274;43.054;25.146;2023-03-22T10:59:44;95409.28;;;12.21;83.55
61408;BME280;47274;43.054;25.146;2023-03-22T11:02:21;95404.25;;;12.03;85.27
61408;BME280;47274;43.054;25.146;2023-03-22T11:04:49;95396.09;;;12.07;88.24
61408;BME280;47274;43.054;25.146;2023-03-22T11:07:27;95396.09;;;12.07;89.33
61408;BME280;47274;43.054;25.146;2023-03-22T11:10:20;95401.53;;;12.04;88.03
61408;BME280;47274;43.054;25.146;2023-03-22T11:12:50;95403.59;;;11.93;85.99
61408;BME280;47274;43.054;25.146;2023-03-22T11:15:28;95382.44;;;11.65;86.20
61408;BME280;47274;43.054;25.146;2023-03-22T11:18:15;95398.34;;;11.60;86.61
61408;BME280;47274;43.054;25.146;2023-03-22T11:20:53;95396.06;;;11.57;88.62
61408;BME280;47274;43.054;25.146;2023-03-22T11:23:20;95390.78;;;11.58;87.06
61408;BME280;47274;43.054;25.146;2023-03-22T11:25:48;95387.53;;;11.48;86.40
61408;BME280;47274;43.054;25.146;2023-03-22T11:29:00;95391.25;;;11.54;87.37
61408;BME280;47274;43.054;25.146;2023-03-22T11:31:11;95386.53;;;11.41;88.45
61408;BME280;47274;43.054;25.146;2023-03-22T11:33:54;95378.09;;;11.14;89.64
61408;BME280;47274;43.054;25.146;2023-03-22T11:36:21;95396.50;;;11.10;90.79
61408;BME280;47274;43.054;25.146;2023-03-22T11:38:46;95390.34;;;10.95;91.45
61408;BME280;47274;43.054;25.146;2023-03-22T11:41:22;95383.50;;;10.77;92.38
61408;BME280;47274;43.054;25.146;2023-03-22T11:43:54;95388.22;;;10.64;92.32
61408;BME280;47274;43.054;25.146;2023-03-22T11:46:21;95403.09;;;10.60;94.69
61408;BME280;47274;43.054;25.146;2023-03-22T11:48:51;95390.94;;;10.44;94.14
61408;BME280;47274;43.054;25.146;2023-03-22T11:51:28;95391.59;;;10.29;95.66
61408;BME280;47274;43.054;25.146;2023-03-22T11:54:04;95366.75;;;10.11;96.78
61408;BME280;47274;43.054;25.146;2023-03-22T11:56:31;95364.69;;;10.15;96.98
61408;BME280;47274;43.054;25.146;2023-03-22T11:59:04;95372.22;;;10.26;98.35
61408;BME280;47274;43.054;25.146;2023-03-22T12:01:50;95390.72;;;10.38;96.18
61408;BME280;47274;43.054;25.146;2023-03-22T12:04:23;95378.41;;;10.41;97.33
61408;BME280;47274;43.054;25.146;2023-03-22T12:06:52;95389.69;;;10.49;97.83
61408;BME280;47274;43.054;25.146;2023-03-22T12:09:40;95398.09;;;10.59;98.24
61408;BME280;47274;43.054;25.146;2023-03-22T12:12:18;95398.59;;;10.62;97.92
61408;BME280;47274;43.054;25.146;2023-03-22T12:15:22;95393.63;;;10.61;98.75
61408;BME280;47274;43.054;25.146;2023-03-22T12:17:56;95388.34;;;10.62;98.94
61408;BME280;47274;43.054;25.146;2023-03-22T12:22:54;95388.03;;;10.65;98.60
61408;BME280;47274;43.054;25.146;2023-03-22T12:25:24;95372.59;;;10.57;98.33
61408;BME280;47274;43.054;25.146;2023-03-22T12:28:19;95392.22;;;10.66;97.94
61408;BME280;47274;43.054;25.146;2023-03-22T12:30:49;95377.44;;;10.60;97.84
61408;BME280;47274;43.054;25.146;2023-03-22T12:33:21;95391.56;;;10.64;97.68
61408;BME280;47274;43.054;25.146;2023-03-22T12:35:52;95385.94;;;10.61;98.39
61408;BME280;47274;43.054;25.146;2023-03-22T12:40:54;95379.91;;;10.70;97.26
61408;BME280;47274;43.054;25.146;2023-03-22T12:46:00;95370.28;;;10.72;97.54
61408;BME280;47274;43.054;25.146;2023-03-22T12:48:36;95386.25;;;10.84;96.51
61408;BME280;47274;43.054;25.146;2023-03-22T12:51:07;95394.19;;;10.73;96.40
61408;BME280;47274;43.054;25.146;2023-03-22T12:53:43;95380.50;;;10.64;97.49
61408;BME280;47274;43.054;25.146;2023-03-22T12:56:23;95387.91;;;10.67;99.25
61408;BME280;47274;43.054;25.146;2023-03-22T12:58:58;95383.75;;;10.48;100.00
61408;BME280;47274;43.054;25.146;2023-03-22T13:17:31;95375.56;;;9.63;100.00
61408;BME280;47274;43.054;25.146;2023-03-22T13:30:32;95392.09;;;9.51;100.00
61408;BME280;47274;43.054;25.146;2023-03-22T13:33:02;95386.59;;;9.46;100.00
61408;BME280;47274;43.054;25.146;2023-03-22T13:38:25;95390.03;;;9.37;100.00
61408;BME280;47274;43.054;25.146;2023-03-22T13:43:49;95388.78;;;9.41;100.00
61408;BME280;47274;43.054;25.146;2023-03-22T13:54:23;95383.53;;;9.60;100.00
61408;BME280;47274;43.054;25.146;2023-03-22T13:56:55;95387.22;;;9.58;100.00
61408;BME280;47274;43.054;25.146;2023-03-22T14:04:57;95379.84;;;9.72;100.00
61408;BME280;47274;43.054;25.146;2023-03-22T14:07:42;95364.41;;;9.64;100.00
61408;BME280;47274;43.054;25.146;2023-03-22T14:12:53;95373.63;;;9.75;100.00
61408;BME280;47274;43.054;25.146;2023-03-22T14:15:25;95383.94;;;9.83;100.00
61408;BME280;47274;43.054;25.146;2023-03-22T14:18:07;95374.16;;;9.79;100.00
61408;BME280;47274;43.054;25.146;2023-03-22T14:20:38;95383.50;;;9.88;100.00
61408;BME280;47274;43.054;25.146;2023-03-22T14:23:37;95373.06;;;9.81;100.00
61408;BME280;47274;43.054;25.146;2023-03-22T14:26:15;95377.34;;;9.81;100.00
61408;BME280;47274;43.054;25.146;2023-03-22T14:28:43;95367.59;;;9.66;100.00
61408;BME280;47274;43.054;25.146;2023-03-22T14:31:24;95385.78;;;9.73;100.00
61408;BME280;47274;43.054;25.146;2023-03-22T14:33:52;95385.53;;;9.66;100.00
61408;BME280;47274;43.054;25.146;2023-03-22T14:36:19;95391.47;;;9.67;100.00
61408;BME280;47274;43.054;25.146;2023-03-22T14:38:48;95385.97;;;9.62;100.00
61408;BME280;47274;43.054;25.146;2023-03-22T14:41:21;95388.81;;;9.59;100.00
61408;BME280;47274;43.054;25.146;2023-03-22T14:44:04;95379.78;;;9.64;100.00
61408;BME280;47274;43.054;25.146;2023-03-22T14:46:32;95369.81;;;9.61;100.00
61408;BME280;47274;43.054;25.146;2023-03-22T14:49:00;95391.56;;;9.75;100.00
61408;BME280;47274;43.054;25.146;2023-03-22T14:51:32;95371.94;;;9.66;100.00
61408;BME280;47274;43.054;25.146;2023-03-22T14:54:05;95362.00;;;9.53;100.00
61408;BME280;47274;43.054;25.146;2023-03-22T14:56:38;95374.66;;;9.64;100.00
61408;BME280;47274;43.054;25.146;2023-03-22T14:59:06;95365.75;;;9.41;100.00
61408;BME280;47274;43.054;25.146;2023-03-22T15:01:39;95393.03;;;9.50;100.00
61408;BME280;47274;43.054;25.146;2023-03-22T15:04:09;95389.34;;;9.35;100.00
61408;BME280;47274;43.054;25.146;2023-03-22T15:06:48;95381.59;;;9.27;100.00
61408;BME280;47274;43.054;25.146;2023-03-22T15:09:18;95392.72;;;9.35;100.00